createdAt,value
2022-11-05T00:00:24.707Z,3.61
2022-11-05T00:01:31.210Z,3.63
2022-11-05T00:02:38.123Z,3.65
2022-11-05T00:03:42.667Z,3.65
2022-11-05T00:04:50.315Z,3.66
2022-11-05T00:05:55.501Z,3.68
2022-11-05T00:07:17.742Z,3.68
2022-11-05T00:08:21.986Z,3.68
2022-11-05T00:09:27.683Z,3.68
2022-11-05T00:10:43.453Z,3.68
2022-11-05T00:11:42.605Z,3.69
2022-11-05T00:12:47.432Z,3.71
2022-11-05T00:13:56.904Z,3.72
2022-11-05T00:15:12.183Z,3.75
2022-11-05T00:16:10.248Z,3.75
2022-11-05T00:17:17.085Z,3.75
2022-11-05T00:18:27.438Z,3.75
2022-11-05T00:19:32.129Z,3.76
2022-11-05T00:20:50.257Z,3.76
2022-11-05T00:21:48.061Z,3.76
2022-11-05T00:23:05.129Z,3.76
2022-11-05T00:24:09.581Z,3.75
2022-11-05T00:25:14.354Z,3.75
2022-11-05T00:26:19.205Z,3.74
2022-11-05T00:27:25.465Z,3.73
2022-11-05T00:28:31.480Z,3.72
2022-11-05T00:29:37.156Z,3.74
2022-11-05T00:30:43.260Z,3.73
2022-11-05T00:31:53.479Z,3.74
2022-11-05T00:33:02.324Z,3.74
2022-11-05T00:34:06.769Z,3.73
2022-11-05T00:35:11.487Z,3.72
2022-11-05T00:36:19.548Z,3.70
2022-11-05T00:37:25.714Z,3.70
2022-11-05T00:38:35.118Z,3.69
2022-11-05T00:39:41.032Z,3.74
2022-11-05T00:40:46.808Z,3.83
2022-11-05T00:41:52.760Z,3.90
2022-11-05T00:43:00.854Z,3.97
2022-11-05T00:44:05.578Z,4.03
2022-11-05T00:45:12.987Z,4.10
2022-11-05T00:46:19.241Z,4.08
2022-11-05T00:47:23.693Z,4.08
2022-11-05T00:48:27.997Z,4.05
2022-11-05T00:49:40.289Z,3.98
2022-11-05T00:50:41.483Z,3.92
2022-11-05T00:51:48.602Z,3.86
2022-11-05T00:52:59.021Z,3.77
2022-11-05T00:54:05.496Z,3.73
2022-11-05T00:55:12.096Z,3.69
2022-11-05T00:56:23.618Z,3.63
2022-11-05T00:57:28.849Z,3.61
2022-11-05T00:58:39.198Z,3.61
2022-11-05T00:59:43.644Z,3.57
2022-11-05T01:00:56.147Z,3.57
2022-11-05T01:02:03.970Z,3.51
2022-11-05T01:03:11.986Z,3.50
2022-11-05T01:04:16.803Z,3.45
2022-11-05T01:05:21.389Z,3.44
2022-11-05T01:06:27.409Z,3.42
2022-11-05T01:07:31.983Z,3.40
2022-11-05T01:08:37.222Z,3.38
2022-11-05T01:09:43.193Z,3.38
2022-11-05T01:10:57.638Z,3.36
2022-11-05T01:12:02.169Z,3.38
2022-11-05T01:13:12.733Z,3.38
2022-11-05T01:14:16.606Z,3.37
2022-11-05T01:15:23.611Z,3.36
2022-11-05T01:16:29.422Z,3.36
2022-11-05T01:18:03.946Z,3.38
2022-11-05T01:19:11.596Z,3.40
2022-11-05T01:20:19.021Z,3.41
2022-11-05T01:21:26.420Z,3.41
2022-11-05T01:22:32.884Z,3.39
2022-11-05T01:23:38.444Z,3.39
2022-11-05T01:24:48.796Z,3.38
2022-11-05T01:25:57.300Z,3.39
2022-11-05T01:27:03.061Z,3.38
2022-11-05T01:28:08.685Z,3.38
2022-11-05T01:29:16.593Z,3.38
2022-11-05T01:30:26.045Z,3.38
2022-11-05T01:31:31.729Z,3.36
2022-11-05T01:32:39.953Z,3.36
2022-11-05T01:33:48.872Z,3.36
2022-11-05T01:34:58.154Z,3.36
2022-11-05T01:36:05.031Z,3.33
2022-11-05T01:37:12.784Z,3.33
2022-11-05T01:38:18.955Z,3.35
2022-11-05T01:39:27.035Z,3.33
2022-11-05T01:40:32.749Z,3.34
2022-11-05T01:41:42.130Z,3.35
2022-11-05T01:42:50.304Z,3.35
2022-11-05T01:44:00.110Z,3.37
2022-11-05T01:45:29.132Z,3.37
2022-11-05T01:46:40.013Z,3.38
2022-11-05T01:48:07.986Z,3.35
2022-11-05T01:49:20.880Z,3.36
2022-11-05T01:52:17.964Z,3.48
2022-11-05T01:53:51.533Z,3.35
2022-11-05T01:54:56.876Z,3.36
2022-11-05T01:56:20.461Z,3.35
2022-11-05T01:57:29.380Z,3.36
2022-11-05T01:58:39.017Z,3.36
2022-11-05T01:59:56.097Z,3.33
2022-11-05T02:01:28.198Z,3.32
2022-11-05T02:02:09.402Z,3.32
2022-11-05T02:03:17.591Z,3.32
2022-11-05T02:04:36.485Z,3.32
2022-11-05T02:05:41.791Z,3.31
2022-11-05T02:06:48.154Z,3.31
2022-11-05T02:07:54.706Z,3.30
2022-11-05T02:09:09.367Z,3.25
2022-11-05T02:10:16.614Z,3.25
2022-11-05T02:11:25.941Z,3.24
2022-11-05T02:12:35.120Z,3.24
2022-11-05T02:13:49.874Z,3.24
2022-11-05T02:14:51.140Z,3.23
2022-11-05T02:16:03.808Z,3.24
2022-11-05T02:17:15.965Z,3.25
2022-11-05T02:18:34.521Z,3.25
2022-11-05T02:19:58.557Z,3.25
2022-11-05T02:21:09.426Z,3.25
2022-11-05T02:22:35.678Z,3.25
2022-11-05T02:24:05.566Z,3.26
2022-11-05T02:25:40.311Z,3.26
2022-11-05T02:26:53.147Z,3.29
2022-11-05T02:28:22.538Z,3.28
2022-11-05T02:29:43.265Z,3.29
2022-11-05T02:30:53.303Z,3.29
2022-11-05T02:32:07.509Z,3.28
2022-11-05T02:33:26.246Z,3.26
2022-11-05T02:34:47.615Z,3.26
2022-11-05T02:36:03.285Z,3.25
2022-11-05T02:39:11.207Z,3.26
2022-11-05T02:40:38.091Z,3.27
2022-11-05T02:42:05.360Z,3.26
2022-11-05T02:43:14.806Z,3.24
2022-11-05T02:44:27.300Z,3.23
2022-11-05T02:45:43.923Z,3.23
2022-11-05T02:47:17.976Z,3.23
2022-11-05T02:48:25.926Z,3.23
2022-11-05T02:49:59.973Z,3.21
2022-11-05T02:51:15.025Z,3.21
2022-11-05T02:52:24.555Z,3.21
2022-11-05T02:53:45.589Z,3.21
2022-11-05T02:55:04.583Z,3.21
2022-11-05T02:56:14.549Z,3.19
2022-11-05T02:57:24.025Z,3.17
2022-11-05T02:58:32.583Z,3.17
2022-11-05T02:59:37.325Z,3.11
2022-11-05T03:00:55.458Z,3.10
2022-11-05T03:02:02.890Z,3.06
2022-11-05T03:03:13.522Z,3.05
2022-11-05T03:04:20.270Z,3.05
2022-11-05T03:05:27.684Z,3.00
2022-11-05T03:07:02.304Z,3.00
2022-11-05T03:08:09.693Z,2.96
2022-11-05T03:09:17.643Z,2.95
2022-11-05T03:10:40.249Z,2.90
2022-11-05T03:12:15.374Z,2.86
2022-11-05T03:13:25.420Z,2.80
2022-11-05T03:15:04.663Z,2.74
2022-11-05T03:16:25.112Z,2.69
2022-11-05T03:17:46.970Z,2.61
2022-11-05T03:19:05.774Z,2.57
2022-11-05T03:20:22.185Z,2.52
2022-11-05T03:21:29.724Z,2.52
2022-11-05T03:22:37.408Z,2.50
2022-11-05T03:24:02.472Z,2.49
2022-11-05T03:25:15.946Z,2.49
2022-11-05T03:26:31.579Z,2.48
2022-11-05T03:27:39.531Z,2.47
2022-11-05T03:28:49.641Z,2.47
2022-11-05T03:30:03.128Z,2.48
2022-11-05T03:31:11.683Z,2.49
2022-11-05T03:32:18.823Z,2.51
2022-11-05T03:33:26.922Z,2.53
2022-11-05T03:34:37.067Z,2.56
2022-11-05T03:35:45.663Z,2.59
2022-11-05T03:36:56.554Z,2.62
2022-11-05T03:38:04.157Z,2.64
2022-11-05T03:39:11.695Z,2.68
2022-11-05T03:40:19.493Z,2.72
2022-11-05T03:41:25.901Z,2.75
2022-11-05T03:42:33.843Z,2.79
2022-11-05T03:43:44.087Z,2.84
2022-11-05T03:44:55.402Z,2.86
2022-11-05T03:46:04.152Z,2.87
2022-11-05T03:47:12.575Z,2.91
2022-11-05T03:48:19.233Z,2.91
2022-11-05T03:49:26.401Z,2.97
2022-11-05T03:50:43.833Z,3.01
2022-11-05T03:51:51.382Z,3.04
2022-11-05T03:53:00.160Z,3.07
2022-11-05T03:54:10.942Z,3.10
2022-11-05T03:55:12.273Z,3.14
2022-11-05T03:56:20.204Z,3.17
2022-11-05T03:57:33.444Z,3.19
2022-11-05T03:58:42.850Z,3.25
2022-11-05T03:59:49.148Z,3.25
2022-11-05T04:00:53.717Z,3.29
2022-11-05T04:01:58.774Z,3.33
2022-11-05T04:03:03.630Z,3.36
2022-11-05T04:04:09.436Z,3.42
2022-11-05T04:05:14.746Z,3.46
2022-11-05T04:06:20.764Z,3.46
2022-11-05T04:07:26.317Z,3.52
2022-11-05T04:08:33.702Z,3.55
2022-11-05T04:09:38.790Z,3.59
2022-11-05T04:10:44.059Z,3.62
2022-11-05T04:11:49.915Z,3.66
2022-11-05T04:12:54.596Z,3.67
2022-11-05T04:14:00.147Z,3.70
2022-11-05T04:15:06.110Z,3.72
2022-11-05T04:16:13.551Z,3.74
2022-11-05T04:17:23.106Z,3.77
2022-11-05T04:18:26.468Z,3.80
2022-11-05T04:19:32.957Z,3.82
2022-11-05T04:20:40.745Z,3.82
2022-11-05T04:21:45.745Z,3.87
2022-11-05T04:22:52.207Z,3.89
2022-11-05T04:23:58.228Z,3.91
2022-11-05T04:25:04.576Z,3.91
2022-11-05T04:26:21.251Z,3.93
2022-11-05T04:27:29.432Z,3.94
2022-11-05T04:28:34.256Z,3.94
2022-11-05T04:29:40.938Z,3.94
2022-11-05T04:30:46.971Z,3.94
2022-11-05T04:31:52.614Z,3.93
2022-11-05T04:33:03.739Z,3.94
2022-11-05T04:34:13.385Z,3.94
2022-11-05T04:35:21.539Z,3.93
2022-11-05T04:36:27.233Z,3.93
2022-11-05T04:37:34.840Z,3.94
2022-11-05T04:38:40.644Z,3.97
2022-11-05T04:39:52.752Z,3.98
2022-11-05T04:40:56.870Z,3.99
2022-11-05T04:42:03.641Z,4.00
2022-11-05T04:43:15.194Z,4.02
2022-11-05T04:44:19.350Z,4.03
2022-11-05T04:45:29.090Z,4.03
2022-11-05T04:46:35.008Z,4.04
2022-11-05T04:47:39.959Z,4.05
2022-11-05T04:48:45.954Z,4.05
2022-11-05T04:49:54.887Z,4.05
2022-11-05T04:51:02.330Z,4.05
2022-11-05T04:52:07.717Z,4.05
2022-11-05T04:53:16.533Z,4.05
2022-11-05T04:54:21.425Z,4.06
2022-11-05T04:55:26.895Z,4.09
2022-11-05T04:56:31.674Z,4.08
2022-11-05T04:57:37.491Z,4.07
2022-11-05T04:58:45.379Z,4.07
2022-11-05T04:59:50.902Z,4.07
2022-11-05T05:00:55.726Z,4.09
2022-11-05T05:02:00.913Z,4.11
2022-11-05T05:03:08.336Z,4.11
2022-11-05T05:04:13.964Z,4.10
2022-11-05T05:05:19.062Z,4.13
2022-11-05T05:06:23.643Z,4.12
2022-11-05T05:07:32.679Z,4.13
2022-11-05T05:08:39.977Z,4.14
2022-11-05T05:09:44.841Z,4.16
2022-11-05T05:10:49.516Z,4.18
2022-11-05T05:11:55.637Z,4.20
2022-11-05T05:13:00.158Z,4.21
2022-11-05T05:14:04.630Z,4.25
2022-11-05T05:15:12.684Z,4.27
2022-11-05T05:16:24.886Z,4.31
2022-11-05T05:17:33.254Z,4.32
2022-11-05T05:18:46.280Z,4.35
2022-11-05T05:19:54.318Z,4.37
2022-11-05T05:21:02.994Z,4.39
2022-11-05T05:22:21.276Z,4.42
2022-11-05T05:23:24.775Z,4.48
2022-11-05T05:24:33.711Z,4.48
2022-11-05T05:25:40.475Z,4.51
2022-11-05T05:26:51.298Z,4.58
2022-11-05T05:28:01.686Z,4.60
2022-11-05T05:29:11.640Z,4.64
2022-11-05T05:30:36.723Z,4.67
2022-11-05T05:31:43.712Z,4.67
2022-11-05T05:32:48.144Z,4.70
2022-11-05T05:34:01.388Z,4.72
2022-11-05T05:35:07.950Z,4.72
2022-11-05T05:36:12.462Z,4.74
2022-11-05T05:37:18.541Z,4.80
2022-11-05T05:38:24.658Z,4.80
2022-11-05T05:39:30.230Z,4.82
2022-11-05T05:40:39.081Z,4.82
2022-11-05T05:41:50.050Z,4.81
2022-11-05T05:42:56.121Z,4.81
2022-11-05T05:44:01.849Z,4.78
2022-11-05T05:45:10.509Z,4.78
2022-11-05T05:46:21.490Z,4.80
2022-11-05T05:47:23.194Z,4.80
2022-11-05T05:48:29.096Z,4.81
2022-11-05T05:49:35.150Z,4.82
2022-11-05T05:50:42.243Z,4.82
2022-11-05T05:51:48.490Z,4.82
2022-11-05T05:52:53.403Z,4.82
2022-11-05T05:53:57.880Z,4.82
2022-11-05T05:55:02.299Z,4.82
2022-11-05T05:56:12.047Z,4.82
2022-11-05T05:57:21.162Z,4.83
2022-11-05T05:58:28.423Z,4.83
2022-11-05T05:59:35.743Z,4.83
2022-11-05T06:00:42.452Z,4.83
2022-11-05T06:01:51.901Z,4.83
2022-11-05T06:02:59.275Z,4.82
2022-11-05T06:04:04.336Z,4.82
2022-11-05T06:05:10.483Z,4.82
2022-11-05T06:06:29.477Z,4.80
2022-11-05T06:07:37.793Z,4.80
2022-11-05T06:08:43.212Z,4.77
2022-11-05T06:09:47.656Z,4.75
2022-11-05T06:10:52.943Z,4.72
2022-11-05T06:11:59.070Z,4.73
2022-11-05T06:13:06.543Z,4.71
2022-11-05T06:14:12.282Z,4.71
2022-11-05T06:15:29.431Z,4.71
2022-11-05T06:16:39.178Z,4.71
2022-11-05T06:17:50.978Z,4.71
2022-11-05T06:19:00.040Z,4.71
2022-11-05T06:20:19.324Z,4.72
2022-11-05T06:21:27.387Z,4.73
2022-11-05T06:22:37.382Z,4.73
2022-11-05T06:23:44.662Z,4.75
2022-11-05T06:24:49.247Z,4.75
2022-11-05T06:25:55.316Z,4.76
2022-11-05T06:27:00.075Z,4.77
2022-11-05T06:28:08.548Z,4.79
2022-11-05T06:29:16.152Z,4.79
2022-11-05T06:30:27.334Z,4.78
2022-11-05T06:31:33.274Z,4.79
2022-11-05T06:32:40.342Z,4.79
2022-11-05T06:33:48.201Z,4.83
2022-11-05T06:34:56.615Z,4.85
2022-11-05T06:36:07.847Z,4.81
2022-11-05T06:37:10.988Z,4.81
2022-11-05T06:38:30.329Z,4.83
2022-11-05T06:39:27.110Z,4.85
2022-11-05T06:40:31.609Z,4.81
2022-11-05T06:41:56.855Z,4.81
2022-11-05T06:42:45.503Z,4.82
2022-11-05T06:43:50.226Z,4.83
2022-11-05T06:44:55.979Z,4.81
2022-11-05T06:46:05.217Z,4.80
2022-11-05T06:47:09.849Z,4.80
2022-11-05T06:48:17.193Z,4.83
2022-11-05T06:49:21.878Z,4.83
2022-11-05T06:50:28.953Z,4.88
2022-11-05T06:51:41.133Z,4.88
2022-11-05T06:52:43.253Z,4.91
2022-11-05T06:53:49.027Z,4.91
2022-11-05T06:55:03.197Z,4.95
2022-11-05T06:56:07.862Z,5.00
2022-11-05T06:57:18.486Z,5.02
2022-11-05T06:58:25.454Z,5.06
2022-11-05T06:59:36.730Z,5.11
2022-11-05T07:00:44.763Z,5.11
2022-11-05T07:01:55.562Z,5.11
2022-11-05T07:03:09.683Z,5.14
2022-11-05T07:04:18.773Z,5.10
2022-11-05T07:05:27.695Z,5.10
2022-11-05T07:06:39.091Z,5.13
2022-11-05T07:07:48.124Z,5.15
2022-11-05T07:08:54.921Z,5.16
2022-11-05T07:10:01.307Z,5.16
2022-11-05T07:11:08.870Z,5.10
2022-11-05T07:12:13.446Z,5.10
2022-11-05T07:13:19.466Z,5.14
2022-11-05T07:14:24.786Z,5.16
2022-11-05T07:15:31.846Z,5.16
2022-11-05T07:16:38.746Z,5.19
2022-11-05T07:17:51.501Z,5.19
2022-11-05T07:18:56.794Z,5.24
2022-11-05T07:20:04.167Z,5.27
2022-11-05T07:21:10.694Z,5.28
2022-11-05T07:22:15.138Z,5.29
2022-11-05T07:23:22.484Z,5.32
2022-11-05T07:24:28.445Z,5.32
2022-11-05T07:25:35.210Z,5.33
2022-11-05T07:26:43.127Z,5.35
2022-11-05T07:27:49.079Z,5.36
2022-11-05T07:28:59.940Z,5.36
2022-11-05T07:30:11.596Z,5.36
2022-11-05T07:31:16.107Z,5.35
2022-11-05T07:32:25.026Z,5.37
2022-11-05T07:33:44.070Z,5.39
2022-11-05T07:34:42.333Z,5.43
2022-11-05T07:35:50.017Z,5.43
2022-11-05T07:36:54.741Z,5.43
2022-11-05T07:38:01.392Z,5.48
2022-11-05T07:39:12.042Z,5.48
2022-11-05T07:40:49.114Z,5.53
2022-11-05T07:41:37.474Z,5.53
2022-11-05T07:42:49.453Z,2.30
2022-11-05T07:44:06.538Z,5.53
2022-11-05T07:45:21.206Z,5.53
2022-11-05T07:46:25.428Z,5.54
2022-11-05T07:47:36.203Z,5.58
2022-11-05T07:48:39.560Z,5.58
2022-11-05T07:49:45.317Z,5.62
2022-11-05T07:50:53.283Z,5.62
2022-11-05T07:51:57.913Z,5.66
2022-11-05T07:53:10.587Z,5.66
2022-11-05T07:54:17.283Z,5.71
2022-11-05T07:55:24.351Z,5.67
2022-11-05T07:56:29.351Z,5.71
2022-11-05T07:57:36.983Z,5.76
2022-11-05T07:58:43.311Z,5.79
2022-11-05T07:59:49.652Z,5.83
2022-11-05T08:00:56.312Z,5.83
2022-11-05T08:02:01.018Z,5.82
2022-11-05T08:03:14.932Z,5.82
2022-11-05T08:04:37.854Z,5.80
2022-11-05T08:05:45.289Z,5.83
2022-11-05T08:06:50.830Z,5.81
2022-11-05T08:07:58.402Z,5.87
2022-11-05T08:09:04.050Z,5.87
2022-11-05T08:10:09.612Z,5.89
2022-11-05T08:11:16.500Z,5.89
2022-11-05T08:12:21.624Z,5.89
2022-11-05T08:13:26.881Z,5.88
2022-11-05T08:14:31.894Z,5.88
2022-11-05T08:15:38.070Z,5.89
2022-11-05T08:16:42.948Z,5.89
2022-11-05T08:17:49.099Z,5.93
2022-11-05T08:18:55.608Z,5.94
2022-11-05T08:20:08.806Z,5.96
2022-11-05T08:21:09.200Z,5.96
2022-11-05T08:22:13.490Z,5.95
2022-11-05T08:23:20.332Z,5.98
2022-11-05T08:24:26.215Z,5.98
2022-11-05T08:25:32.723Z,5.98
2022-11-05T08:26:37.501Z,6.01
2022-11-05T08:27:57.678Z,6.01
2022-11-05T08:28:59.875Z,6.06
2022-11-05T08:30:05.588Z,6.09
2022-11-05T08:31:11.083Z,6.09
2022-11-05T08:32:18.628Z,6.07
2022-11-05T08:33:24.853Z,6.00
2022-11-05T08:34:30.796Z,6.01
2022-11-05T08:35:40.277Z,5.96
2022-11-05T08:36:48.849Z,6.03
2022-11-05T08:38:01.984Z,5.97
2022-11-05T08:39:11.636Z,5.97
2022-11-05T08:40:21.011Z,5.98
2022-11-05T08:41:25.524Z,5.92
2022-11-05T08:42:31.401Z,5.95
2022-11-05T08:43:36.095Z,5.92
2022-11-05T08:44:47.096Z,5.91
2022-11-05T08:45:46.851Z,5.91
2022-11-05T08:46:54.430Z,6.00
2022-11-05T08:48:05.060Z,6.00
2022-11-05T08:49:11.953Z,6.01
2022-11-05T08:50:19.536Z,6.05
2022-11-05T08:51:23.846Z,6.04
2022-11-05T08:52:31.641Z,6.04
2022-11-05T08:53:39.673Z,6.02
2022-11-05T08:54:46.518Z,6.05
2022-11-05T08:55:54.716Z,6.02
2022-11-05T08:57:00.994Z,6.06
2022-11-05T08:58:10.171Z,6.07
2022-11-05T08:59:16.201Z,6.01
2022-11-05T09:00:22.500Z,6.01
2022-11-05T09:01:28.303Z,6.00
2022-11-05T09:02:36.014Z,5.96
2022-11-05T09:03:42.466Z,5.87
2022-11-05T09:04:47.242Z,5.87
2022-11-05T09:05:54.333Z,5.95
2022-11-05T09:07:00.361Z,5.97
2022-11-05T09:08:08.706Z,6.00
2022-11-05T09:09:14.796Z,6.00
2022-11-05T09:10:22.990Z,5.98
2022-11-05T09:11:56.970Z,6.01
2022-11-05T09:12:37.412Z,6.02
2022-11-05T09:13:44.540Z,6.02
2022-11-05T09:14:51.632Z,6.00
2022-11-05T09:15:57.879Z,5.94
2022-11-05T09:17:03.036Z,5.89
2022-11-05T09:18:07.651Z,5.93
2022-11-05T09:19:12.097Z,5.91
2022-11-05T09:20:16.729Z,5.91
2022-11-05T09:21:21.191Z,5.91
2022-11-05T09:22:25.463Z,5.90
2022-11-05T09:23:30.031Z,5.90
2022-11-05T09:24:34.630Z,5.91
2022-11-05T09:25:39.559Z,5.91
2022-11-05T09:26:44.034Z,5.99
2022-11-05T09:27:49.571Z,6.01
2022-11-05T09:28:55.981Z,5.98
2022-11-05T09:30:01.361Z,5.98
2022-11-05T09:31:10.823Z,6.06
2022-11-05T09:32:15.985Z,5.95
2022-11-05T09:33:24.142Z,6.06
2022-11-05T09:34:28.659Z,6.11
2022-11-05T09:35:33.491Z,6.09
2022-11-05T09:36:38.442Z,6.09
2022-11-05T09:37:43.252Z,6.12
2022-11-05T09:38:48.117Z,6.11
2022-11-05T09:39:54.669Z,6.11
2022-11-05T09:41:21.991Z,6.08
2022-11-05T09:42:34.054Z,6.12
2022-11-05T09:43:46.983Z,6.12
2022-11-05T09:44:57.864Z,6.16
2022-11-05T09:46:12.299Z,6.11
2022-11-05T09:47:20.542Z,6.16
2022-11-05T09:48:31.836Z,6.13
2022-11-05T09:49:52.469Z,6.16
2022-11-05T09:51:00.870Z,6.16
2022-11-05T09:52:07.609Z,6.19
2022-11-05T09:53:21.078Z,6.25
2022-11-05T09:54:31.377Z,6.24
2022-11-05T09:55:46.667Z,6.20
2022-11-05T09:56:54.770Z,6.20
2022-11-05T09:58:03.990Z,6.23
2022-11-05T09:59:34.340Z,6.20
2022-11-05T10:00:41.664Z,6.20
2022-11-05T10:01:56.295Z,6.25
2022-11-05T10:03:07.082Z,6.24
2022-11-05T10:04:28.852Z,6.31
2022-11-05T10:05:38.904Z,6.34
2022-11-05T10:06:56.037Z,6.34
2022-11-05T10:08:25.080Z,6.35
2022-11-05T10:09:39.601Z,6.32
2022-11-05T10:11:00.318Z,6.33
2022-11-05T10:12:10.653Z,6.30
2022-11-05T10:13:39.722Z,6.31
2022-11-05T10:14:51.155Z,6.31
2022-11-05T10:16:02.544Z,6.29
2022-11-05T10:17:17.285Z,6.30
2022-11-05T10:18:31.775Z,6.30
2022-11-05T10:19:54.770Z,6.29
2022-11-05T10:21:00.029Z,6.31
2022-11-05T10:22:15.916Z,6.31
2022-11-05T10:23:23.902Z,6.43
2022-11-05T10:24:30.975Z,6.46
2022-11-05T10:25:38.354Z,6.45
2022-11-05T10:26:45.792Z,6.45
2022-11-05T10:27:55.646Z,6.38
2022-11-05T10:29:00.864Z,6.38
2022-11-05T10:30:07.505Z,6.39
2022-11-05T10:31:17.139Z,6.39
2022-11-05T10:32:29.515Z,6.39
2022-11-05T10:33:43.696Z,6.40
2022-11-05T10:34:53.740Z,6.40
2022-11-05T10:36:01.582Z,6.37
2022-11-05T10:37:06.456Z,6.34
2022-11-05T10:38:14.199Z,6.34
2022-11-05T10:39:20.896Z,6.31
2022-11-05T10:40:56.757Z,6.31
2022-11-05T10:42:07.726Z,6.34
2022-11-05T10:43:17.248Z,6.33
2022-11-05T10:44:28.791Z,6.28
2022-11-05T10:45:46.756Z,6.23
2022-11-05T10:47:11.148Z,6.33
2022-11-05T10:48:43.626Z,6.33
2022-11-05T10:49:52.532Z,6.30
2022-11-05T10:50:58.029Z,6.30
2022-11-05T10:52:05.399Z,6.29
2022-11-05T10:53:18.768Z,6.29
2022-11-05T10:54:27.949Z,6.33
2022-11-05T10:55:38.117Z,6.33
2022-11-05T10:56:44.930Z,6.35
2022-11-05T10:57:49.459Z,6.34
2022-11-05T10:59:00.130Z,6.35
2022-11-05T11:00:19.348Z,4.09
2022-11-05T11:01:26.059Z,6.24
2022-11-05T11:02:31.379Z,6.37
2022-11-05T11:03:42.041Z,6.38
2022-11-05T11:04:50.120Z,6.42
2022-11-05T11:06:00.348Z,6.41
2022-11-05T11:07:06.650Z,6.41
2022-11-05T11:08:16.913Z,6.40
2022-11-05T11:09:30.597Z,6.41
2022-11-05T11:10:43.998Z,6.43
2022-11-05T11:11:51.343Z,6.41
2022-11-05T11:12:57.547Z,6.46
2022-11-05T11:14:07.822Z,6.47
2022-11-05T11:15:32.017Z,6.46
2022-11-05T11:16:39.892Z,6.42
2022-11-05T11:17:44.347Z,6.39
2022-11-05T11:18:57.439Z,6.39
2022-11-05T11:20:21.671Z,6.43
2022-11-05T11:21:26.143Z,6.49
2022-11-05T11:22:30.867Z,6.47
2022-11-05T11:23:39.547Z,6.48
2022-11-05T11:24:47.280Z,6.48
2022-11-05T11:26:03.888Z,6.53
2022-11-05T11:27:17.327Z,6.55
2022-11-05T11:28:24.666Z,6.54
2022-11-05T11:29:32.138Z,6.57
2022-11-05T11:30:37.277Z,6.56
2022-11-05T11:31:45.083Z,6.56
2022-11-05T11:32:53.148Z,6.55
2022-11-05T11:34:07.107Z,6.56
2022-11-05T11:35:20.537Z,6.56
2022-11-05T11:36:28.668Z,6.53
2022-11-05T11:37:37.858Z,6.54
2022-11-05T11:38:44.900Z,6.49
2022-11-05T11:40:10.142Z,6.53
2022-11-05T11:41:07.117Z,6.50
2022-11-05T11:42:14.426Z,6.57
2022-11-05T11:43:30.713Z,6.56
2022-11-05T11:44:38.094Z,6.60
2022-11-05T11:46:02.133Z,6.62
2022-11-05T11:47:12.840Z,6.56
2022-11-05T11:48:23.385Z,6.54
2022-11-05T11:49:53.919Z,6.60
2022-11-05T11:51:04.778Z,6.62
2022-11-05T11:52:36.770Z,6.64
2022-11-05T11:53:44.582Z,6.59
2022-11-05T11:54:50.776Z,6.60
2022-11-05T11:56:14.251Z,6.57
2022-11-05T11:57:31.650Z,6.59
2022-11-05T11:58:41.683Z,6.62
2022-11-05T12:00:07.711Z,6.58
2022-11-05T12:00:57.712Z,6.57
2022-11-05T12:02:23.382Z,6.59
2022-11-05T12:03:48.114Z,6.63
2022-11-05T12:04:58.314Z,6.65
2022-11-05T12:06:15.587Z,6.65
2022-11-05T12:07:43.769Z,6.67
2022-11-05T12:09:06.672Z,6.67
2022-11-05T12:10:32.323Z,6.67
2022-11-05T12:11:45.525Z,6.60
2022-11-05T12:13:12.805Z,6.57
2022-11-05T12:14:20.301Z,6.56
2022-11-05T12:15:45.536Z,6.56
2022-11-05T12:17:01.804Z,6.64
2022-11-05T12:18:08.649Z,6.60
2022-11-05T12:19:16.027Z,6.62
2022-11-05T12:20:32.039Z,6.60
2022-11-05T12:21:58.615Z,6.60
2022-11-05T12:23:23.742Z,6.56
2022-11-05T12:24:48.735Z,6.47
2022-11-05T12:26:16.966Z,6.44
2022-11-05T12:27:40.740Z,6.44
2022-11-05T12:29:18.350Z,6.35
2022-11-05T12:30:16.513Z,6.34
2022-11-05T12:31:52.409Z,6.36
2022-11-05T12:33:23.390Z,6.34
2022-11-05T12:34:40.226Z,6.29
2022-11-05T12:35:57.819Z,6.29
2022-11-05T12:37:16.371Z,6.34
2022-11-05T12:38:54.336Z,6.34
2022-11-05T12:40:28.057Z,6.31
2022-11-05T12:41:44.554Z,6.28
2022-11-05T12:43:10.511Z,6.26
2022-11-05T12:44:17.958Z,6.26
2022-11-05T12:45:48.957Z,6.23
2022-11-05T12:47:09.854Z,6.26
2022-11-05T12:48:29.296Z,6.26
2022-11-05T12:49:39.198Z,6.24
2022-11-05T12:50:57.169Z,6.28
2022-11-05T12:52:10.353Z,6.27
2022-11-05T12:53:40.669Z,6.27
2022-11-05T12:54:48.417Z,6.02
2022-11-05T12:56:50.916Z,6.29
2022-11-05T12:57:58.560Z,6.36
2022-11-05T12:59:15.500Z,6.37
2022-11-05T13:00:28.978Z,6.37
2022-11-05T13:01:37.613Z,6.38
2022-11-05T13:02:50.242Z,6.34
2022-11-05T13:04:00.508Z,6.34
2022-11-05T13:05:31.881Z,6.35
2022-11-05T13:06:39.822Z,6.33
2022-11-05T13:08:00.146Z,6.31
2022-11-05T13:09:09.177Z,6.30
2022-11-05T13:10:26.033Z,6.24
2022-11-05T13:11:38.936Z,6.28
2022-11-05T13:12:46.616Z,6.28
2022-11-05T13:14:22.549Z,6.25
2022-11-05T13:15:30.873Z,6.26
2022-11-05T13:16:51.463Z,6.19
2022-11-05T13:18:02.806Z,6.15
2022-11-05T13:19:11.287Z,6.10
2022-11-05T13:20:21.266Z,6.10
2022-11-05T13:21:34.599Z,6.07
2022-11-05T13:22:43.519Z,6.02
2022-11-05T13:23:56.642Z,5.95
2022-11-05T13:25:08.528Z,5.98
2022-11-05T13:26:34.221Z,5.90
2022-11-05T13:28:00.561Z,5.86
2022-11-05T13:29:15.065Z,5.84
2022-11-05T13:30:26.579Z,5.89
2022-11-05T13:31:34.173Z,5.88
2022-11-05T13:32:47.078Z,5.83
2022-11-05T13:33:57.798Z,5.84
2022-11-05T13:35:07.305Z,5.84
2022-11-05T13:36:31.736Z,5.82
2022-11-05T13:37:45.068Z,5.73
2022-11-05T13:39:02.029Z,5.72
2022-11-05T13:40:11.511Z,5.72
2022-11-05T13:41:53.219Z,5.67
2022-11-05T13:43:31.958Z,5.63
2022-11-05T13:45:07.500Z,5.59
2022-11-05T13:46:31.916Z,5.59
2022-11-05T13:47:55.891Z,5.61
2022-11-05T13:49:09.107Z,5.61
2022-11-05T13:50:47.717Z,5.62
2022-11-05T13:51:39.640Z,5.62
2022-11-05T13:52:50.606Z,5.61
2022-11-05T13:53:57.921Z,5.58
2022-11-05T13:55:15.398Z,5.55
2022-11-05T13:56:29.325Z,5.53
2022-11-05T13:57:58.700Z,5.58
2022-11-05T13:59:08.663Z,5.63
2022-11-05T14:00:31.914Z,5.60
2022-11-05T14:02:01.996Z,5.59
2022-11-05T14:03:10.817Z,5.63
2022-11-05T14:04:27.845Z,5.65
2022-11-05T14:05:41.680Z,5.61
2022-11-05T14:06:48.281Z,5.63
2022-11-05T14:07:57.503Z,5.52
2022-11-05T14:09:15.491Z,5.54
2022-11-05T14:10:46.214Z,5.57
2022-11-05T14:11:55.750Z,5.53
2022-11-05T14:13:04.806Z,5.49
2022-11-05T14:16:11.835Z,5.43
2022-11-05T14:17:32.960Z,5.43
2022-11-05T14:18:42.907Z,5.38
2022-11-05T14:20:07.183Z,5.41
2022-11-05T14:21:31.935Z,5.41
2022-11-05T14:22:44.368Z,5.39
2022-11-05T14:23:58.323Z,5.38
2022-11-05T14:25:01.271Z,5.31
2022-11-05T14:26:25.315Z,5.36
2022-11-05T14:28:33.313Z,5.28
2022-11-05T14:29:13.258Z,5.28
2022-11-05T14:30:47.709Z,5.27
2022-11-05T14:32:12.570Z,5.27
2022-11-05T14:33:08.751Z,5.24
2022-11-05T14:34:19.396Z,5.25
2022-11-05T14:35:37.949Z,5.25
2022-11-05T14:36:46.209Z,5.22
2022-11-05T14:37:56.271Z,5.26
2022-11-05T14:39:21.787Z,5.24
2022-11-05T14:40:45.211Z,5.21
2022-11-05T14:42:01.744Z,5.20
2022-11-05T14:43:18.994Z,5.23
2022-11-05T14:44:25.928Z,5.24
2022-11-05T14:45:40.137Z,5.26
2022-11-05T14:46:48.549Z,5.25
2022-11-05T14:47:58.960Z,5.19
2022-11-05T14:49:09.478Z,5.23
2022-11-05T14:50:14.110Z,5.26
2022-11-05T14:51:39.606Z,5.27
2022-11-05T14:52:52.299Z,5.33
2022-11-05T14:54:05.237Z,5.32
2022-11-05T14:55:12.844Z,5.33
2022-11-05T14:56:19.720Z,5.34
2022-11-05T14:57:45.076Z,5.32
2022-11-05T14:58:49.964Z,5.33
2022-11-05T14:59:57.028Z,5.27
2022-11-05T15:01:03.638Z,5.27
2022-11-05T15:02:20.313Z,5.26
2022-11-05T15:03:42.609Z,5.26
2022-11-05T15:04:44.566Z,5.22
2022-11-05T15:05:51.873Z,5.21
2022-11-05T15:07:10.965Z,5.19
2022-11-05T15:08:33.209Z,5.18
2022-11-05T15:09:52.427Z,5.19
2022-11-05T15:11:11.591Z,5.19
2022-11-05T15:12:37.712Z,5.21
2022-11-05T15:13:57.064Z,5.24
2022-11-05T15:15:05.532Z,5.24
2022-11-05T15:16:12.572Z,5.21
2022-11-05T15:17:22.637Z,5.24
2022-11-05T15:18:34.043Z,5.21
2022-11-05T15:19:40.253Z,5.17
2022-11-05T15:20:48.381Z,5.17
2022-11-05T15:21:56.235Z,5.15
2022-11-05T15:23:04.508Z,5.16
2022-11-05T15:24:11.719Z,5.16
2022-11-05T15:25:19.948Z,5.14
2022-11-05T15:26:36.011Z,5.16
2022-11-05T15:27:46.067Z,5.15
2022-11-05T15:28:52.946Z,5.08
2022-11-05T15:30:00.024Z,5.13
2022-11-05T15:31:19.345Z,5.12
2022-11-05T15:32:26.044Z,5.13
2022-11-05T15:33:32.579Z,5.13
2022-11-05T15:34:36.957Z,5.10
2022-11-05T15:35:44.006Z,5.08
2022-11-05T15:36:51.366Z,5.08
2022-11-05T15:38:02.048Z,5.10
2022-11-05T15:39:28.300Z,5.10
2022-11-05T15:40:27.798Z,5.13
2022-11-05T15:41:33.145Z,5.12
2022-11-05T15:42:37.480Z,5.12
2022-11-05T15:43:52.015Z,5.11
2022-11-05T15:44:58.547Z,5.08
2022-11-05T15:46:23.197Z,5.06
2022-11-05T15:47:32.437Z,5.12
2022-11-05T15:48:37.462Z,5.07
2022-11-05T15:49:44.876Z,5.07